createdAt,value
2019-05-30T00:00:06.840Z,2.30
2019-05-30T00:01:58.592Z,2.30
2019-05-30T00:04:04.883Z,2.50
2019-05-30T00:06:15.605Z,2.23
2019-05-30T00:08:29.537Z,2.60
2019-05-30T00:10:34.817Z,3.50
2019-05-30T00:12:46.459Z,2.00
2019-05-30T00:14:54.501Z,2.40
2019-05-30T00:17:00.928Z,2.40
2019-05-30T00:19:10.938Z,2.00
2019-05-30T00:21:23.729Z,2.37
2019-05-30T00:23:27.384Z,1.80
2019-05-30T00:25:31.775Z,2.03
2019-05-30T00:27:36.105Z,2.30
2019-05-30T00:29:40.960Z,1.90
2019-05-30T00:31:45.672Z,2.20
2019-05-30T00:33:50.369Z,1.97
2019-05-30T00:35:55.555Z,2.60
2019-05-30T00:37:59.895Z,2.00
2019-05-30T00:40:06.244Z,2.30
2019-05-30T00:42:13.586Z,2.00
2019-05-30T00:44:22.070Z,2.10
2019-05-30T00:46:27.032Z,1.80
2019-05-30T00:48:32.692Z,2.10
2019-05-30T00:50:37.270Z,2.40
2019-05-30T00:52:42.024Z,2.00
2019-05-30T00:54:46.601Z,2.30
2019-05-30T00:56:51.039Z,2.13
2019-05-30T00:58:56.478Z,2.60
2019-05-30T01:01:01.148Z,2.53
2019-05-30T01:03:08.973Z,2.20
2019-05-30T01:05:15.591Z,2.30
2019-05-30T01:07:22.614Z,2.63
2019-05-30T01:09:27.292Z,2.30
2019-05-30T01:11:32.055Z,2.57
2019-05-30T01:13:36.643Z,2.20
2019-05-30T01:15:41.401Z,2.03
2019-05-30T01:17:45.703Z,2.00
2019-05-30T01:19:50.445Z,1.97
2019-05-30T01:21:54.716Z,1.90
2019-05-30T01:23:59.353Z,2.13
2019-05-30T01:26:03.676Z,2.40
2019-05-30T01:28:12.948Z,1.97
2019-05-30T01:30:19.037Z,2.10
2019-05-30T01:32:30.762Z,2.10
2019-05-30T01:34:35.547Z,2.40
2019-05-30T01:36:39.881Z,1.87
2019-05-30T01:38:44.330Z,1.90
2019-05-30T01:40:49.215Z,1.80
2019-05-30T01:42:53.595Z,2.00
2019-05-30T01:44:58.104Z,1.97
2019-05-30T01:47:02.548Z,1.97
2019-05-30T01:49:10.812Z,1.87
2019-05-30T01:51:16.945Z,2.23
2019-05-30T01:53:25.309Z,2.20
2019-05-30T01:55:32.181Z,2.10
2019-05-30T01:57:37.923Z,2.20
2019-05-30T01:59:43.621Z,1.83
2019-05-30T02:01:48.048Z,2.13
2019-05-30T02:03:52.920Z,1.90
2019-05-30T02:05:57.238Z,1.73
2019-05-30T02:08:03.035Z,1.90
2019-05-30T02:10:11.610Z,2.20
2019-05-30T02:12:18.178Z,3.43
2019-05-30T02:14:24.292Z,1.57
2019-05-30T02:16:29.354Z,1.77
2019-05-30T02:18:33.767Z,1.97
2019-05-30T02:20:38.267Z,2.07
2019-05-30T02:22:42.829Z,1.77
2019-05-30T02:24:47.057Z,2.17
2019-05-30T02:26:51.521Z,1.80
2019-05-30T02:28:55.847Z,1.63
2019-05-30T02:31:00.551Z,1.97
2019-05-30T02:33:07.466Z,2.00
2019-05-30T02:35:14.602Z,1.90
2019-05-30T02:37:25.838Z,1.77
2019-05-30T02:39:30.457Z,1.90
2019-05-30T02:41:34.937Z,1.60
2019-05-30T02:43:39.522Z,1.90
2019-05-30T02:45:43.914Z,1.60
2019-05-30T02:47:48.454Z,1.80
2019-05-30T02:49:58.490Z,1.83
2019-05-30T02:52:08.635Z,1.80
2019-05-30T02:54:19.689Z,2.23
2019-05-30T02:56:26.532Z,1.70
2019-05-30T02:58:30.814Z,1.90
2019-05-30T03:00:36.302Z,1.93
2019-05-30T03:02:40.798Z,1.93
2019-05-30T03:04:45.174Z,1.77
2019-05-30T03:06:49.762Z,2.03
2019-05-30T03:08:53.990Z,1.93
2019-05-30T03:10:58.453Z,2.00
2019-05-30T03:13:04.087Z,1.80
2019-05-30T03:15:15.276Z,1.80
2019-05-30T03:17:24.080Z,2.50
2019-05-30T03:19:28.826Z,2.50
2019-05-30T03:21:33.205Z,1.97
2019-05-30T03:23:38.805Z,2.20
2019-05-30T03:25:43.218Z,1.80
2019-05-30T03:27:48.020Z,1.70
2019-05-30T03:29:52.394Z,1.93
2019-05-30T03:31:57.375Z,1.63
2019-05-30T03:34:04.491Z,2.10
2019-05-30T03:36:22.461Z,1.80
2019-05-30T03:38:17.075Z,2.20
2019-05-30T03:40:27.189Z,1.83
2019-05-30T03:42:31.113Z,2.40
2019-05-30T03:44:35.356Z,2.37
2019-05-30T03:46:42.687Z,2.27
2019-05-30T03:48:47.418Z,2.00
2019-05-30T03:50:52.581Z,2.07
2019-05-30T03:52:56.774Z,2.10
2019-05-30T03:55:01.425Z,2.30
2019-05-30T03:57:22.975Z,2.27
2019-05-30T03:59:31.608Z,1.97
2019-05-30T04:01:43.501Z,1.90
2019-05-30T04:04:01.372Z,2.20
2019-05-30T04:06:07.837Z,2.13
2019-05-30T04:08:19.501Z,1.87
2019-05-30T04:10:28.511Z,1.83
2019-05-30T04:12:54.726Z,1.80
2019-05-30T04:15:05.101Z,1.97
2019-05-30T04:17:16.065Z,1.60
2019-05-30T04:19:23.711Z,1.43
2019-05-30T04:21:27.890Z,1.77
2019-05-30T04:23:32.381Z,2.10
2019-05-30T04:25:37.184Z,2.07
2019-05-30T04:27:41.391Z,1.70
2019-05-30T04:29:45.929Z,2.20
2019-05-30T04:31:50.290Z,1.57
2019-05-30T04:33:54.846Z,2.07
2019-05-30T04:35:59.798Z,1.80
2019-05-30T04:38:04.158Z,1.60
2019-05-30T04:40:13.916Z,1.70
2019-05-30T04:42:26.257Z,1.90
2019-05-30T04:44:32.604Z,1.60
2019-05-30T04:46:37.066Z,1.70
2019-05-30T04:48:42.006Z,1.77
2019-05-30T04:50:46.453Z,2.13
2019-05-30T04:52:50.747Z,1.70
2019-05-30T04:54:55.649Z,1.80
2019-05-30T04:57:00.802Z,1.50
2019-05-30T04:59:10.776Z,2.20
2019-05-30T05:01:23.853Z,1.70
2019-05-30T05:03:45.226Z,1.90
2019-05-30T05:05:40.258Z,1.90
2019-05-30T05:07:47.199Z,2.20
2019-05-30T05:09:52.811Z,2.03
2019-05-30T05:11:57.915Z,1.63
2019-05-30T05:14:04.920Z,2.10
2019-05-30T05:16:25.937Z,1.87
2019-05-30T05:18:44.749Z,2.40
2019-05-30T05:20:50.510Z,2.10
2019-05-30T05:22:57.912Z,1.80
2019-05-30T05:25:09.998Z,2.20
2019-05-30T05:27:24.137Z,2.07
2019-05-30T05:29:30.182Z,1.60
2019-05-30T05:31:34.693Z,1.77
2019-05-30T05:33:39.106Z,1.90
2019-05-30T05:35:43.925Z,1.83
2019-05-30T05:37:48.204Z,1.80
2019-05-30T05:39:53.248Z,1.87
2019-05-30T05:41:57.962Z,1.60
2019-05-30T05:44:02.495Z,1.83
2019-05-30T05:46:09.266Z,2.93
2019-05-30T05:48:21.420Z,1.80
2019-05-30T05:50:25.785Z,2.17
2019-05-30T05:52:30.462Z,1.83
2019-05-30T05:54:34.932Z,2.00
2019-05-30T05:56:39.438Z,1.90
2019-05-30T05:58:43.660Z,2.07
2019-05-30T06:00:48.315Z,1.63
2019-05-30T06:02:52.553Z,2.70
2019-05-30T06:04:57.016Z,1.83
2019-05-30T06:07:01.926Z,1.80
2019-05-30T06:09:12.435Z,1.90
2019-05-30T06:11:24.715Z,2.00
2019-05-30T06:13:32.218Z,1.83
2019-05-30T06:15:36.804Z,1.60
2019-05-30T06:17:44.603Z,2.23
2019-05-30T06:19:49.781Z,3.00
2019-05-30T06:21:55.718Z,289.00
2019-05-30T06:24:01.899Z,200.53
2019-05-30T06:26:13.618Z,599.97
2019-05-30T06:28:24.816Z,220.50
2019-05-30T06:30:29.626Z,219.07
2019-05-30T06:32:34.006Z,327.43
2019-05-30T06:34:39.510Z,258.33
2019-05-30T06:36:44.914Z,239.60
2019-05-30T06:38:49.340Z,53.27
2019-05-30T06:40:53.787Z,25.40
2019-05-30T06:42:59.364Z,8.90
2019-05-30T06:45:12.104Z,4.50
2019-05-30T06:47:24.372Z,31.43
2019-05-30T06:49:29.002Z,20.77
2019-05-30T06:51:33.644Z,21.30
2019-05-30T06:53:37.997Z,6.60
2019-05-30T06:55:43.307Z,19.63
2019-05-30T06:57:47.887Z,18.53
2019-05-30T06:59:52.352Z,120.80
2019-05-30T07:01:57.095Z,55.53
2019-05-30T07:04:02.079Z,86.67
2019-05-30T07:06:09.302Z,45.73
2019-05-30T07:08:17.079Z,68.40
2019-05-30T07:10:24.863Z,42.90
2019-05-30T07:12:31.159Z,35.73
2019-05-30T07:14:35.727Z,37.33
2019-05-30T07:16:42.007Z,46.17
2019-05-30T07:18:46.234Z,65.23
2019-05-30T07:20:53.670Z,78.63
2019-05-30T07:22:58.076Z,115.63
2019-05-30T07:25:02.519Z,376.90
2019-05-30T07:27:13.019Z,464.73
2019-05-30T07:29:18.642Z,147.03
2019-05-30T07:31:26.065Z,87.17
2019-05-30T07:33:30.754Z,83.87
2019-05-30T07:35:34.990Z,47.30
2019-05-30T07:37:39.296Z,44.87
2019-05-30T07:39:44.080Z,207.73
2019-05-30T07:42:05.339Z,226.43
2019-05-30T07:43:56.348Z,392.67
2019-05-30T07:46:01.431Z,592.53
2019-05-30T07:48:08.721Z,592.40
2019-05-30T07:50:16.900Z,421.83
2019-05-30T07:52:35.035Z,348.97
2019-05-30T07:54:39.598Z,157.33
2019-05-30T07:56:45.034Z,72.57
2019-05-30T07:58:55.253Z,8.87
2019-05-30T08:01:00.269Z,6.93
2019-05-30T08:03:11.519Z,4.43
2019-05-30T08:05:26.744Z,4.40
2019-05-30T08:07:35.053Z,5.50
2019-05-30T08:09:43.228Z,40.53
2019-05-30T08:11:49.621Z,22.07
2019-05-30T08:13:54.469Z,7.77
2019-05-30T08:15:59.776Z,4.07
2019-05-30T08:18:07.676Z,4.37
2019-05-30T08:20:21.678Z,8.80
2019-05-30T08:22:27.959Z,129.80
2019-05-30T08:24:36.455Z,160.47
2019-05-30T08:26:41.645Z,44.80
2019-05-30T08:28:46.926Z,20.23
2019-05-30T08:30:52.541Z,12.40
2019-05-30T08:32:58.964Z,11.23
2019-05-30T08:35:06.996Z,6.20
2019-05-30T08:37:15.963Z,5.53
2019-05-30T08:39:24.284Z,4.90
2019-05-30T08:41:31.055Z,4.40
2019-05-30T08:43:39.716Z,3.63
2019-05-30T08:45:46.088Z,3.53
2019-05-30T08:47:53.076Z,2.80
2019-05-30T08:49:59.551Z,3.17
2019-05-30T08:52:04.996Z,3.47
2019-05-30T08:54:14.085Z,3.13
2019-05-30T08:56:28.429Z,3.10
2019-05-30T08:58:36.818Z,3.20
2019-05-30T09:00:41.717Z,2.60
2019-05-30T09:02:46.936Z,2.43
2019-05-30T09:04:52.599Z,2.57
2019-05-30T09:06:58.151Z,2.40
2019-05-30T09:09:04.851Z,2.43
2019-05-30T09:11:24.306Z,2.13
2019-05-30T09:13:34.432Z,2.40
2019-05-30T09:15:45.184Z,2.07
2019-05-30T09:17:50.423Z,2.07
2019-05-30T09:19:57.499Z,2.40
2019-05-30T09:22:05.701Z,2.60
2019-05-30T09:24:21.597Z,2.40
2019-05-30T09:26:29.005Z,2.57
2019-05-30T09:28:34.288Z,2.10
2019-05-30T09:30:39.874Z,2.40
2019-05-30T09:32:50.172Z,2.23
2019-05-30T09:34:54.548Z,2.30
2019-05-30T09:37:06.779Z,2.30
2019-05-30T09:39:23.374Z,2.40
2019-05-30T09:41:33.898Z,2.50
2019-05-30T09:43:41.560Z,2.00
2019-05-30T09:45:48.068Z,2.40
2019-05-30T09:47:53.137Z,1.87
2019-05-30T09:49:57.825Z,2.13
2019-05-30T09:52:03.611Z,2.50
2019-05-30T09:54:09.835Z,2.20
2019-05-30T09:56:20.805Z,1.90
2019-05-30T09:58:29.341Z,2.27
2019-05-30T10:00:35.151Z,2.40
2019-05-30T10:02:40.255Z,2.30
2019-05-30T10:04:46.813Z,2.23
2019-05-30T10:06:55.930Z,2.20
2019-05-30T10:11:08.551Z,1.97
2019-05-30T10:13:22.671Z,2.23
2019-05-30T10:15:27.727Z,2.23
2019-05-30T10:17:33.641Z,2.20
2019-05-30T10:19:38.091Z,2.60
2019-05-30T10:21:43.213Z,2.30
2019-05-30T10:23:49.442Z,2.20
2019-05-30T10:25:53.863Z,2.40
2019-05-30T10:28:03.498Z,2.10
2019-05-30T10:30:16.040Z,2.23
2019-05-30T10:32:27.706Z,2.60
2019-05-30T10:34:33.821Z,2.50
2019-05-30T10:36:44.287Z,2.83
2019-05-30T10:38:47.392Z,2.37
2019-05-30T10:40:54.340Z,2.17
2019-05-30T10:42:59.036Z,2.53
2019-05-30T10:45:11.410Z,2.60
2019-05-30T10:47:24.518Z,2.60
2019-05-30T10:49:35.030Z,2.97
2019-05-30T10:51:38.996Z,2.97
2019-05-30T10:53:47.074Z,2.50
2019-05-30T10:55:53.009Z,3.53
2019-05-30T10:57:59.524Z,2.73
2019-05-30T11:00:12.147Z,2.80
2019-05-30T11:02:23.277Z,3.13
2019-05-30T11:04:28.994Z,3.00
2019-05-30T11:07:15.822Z,3.20
2019-05-30T11:09:26.142Z,2.40
2019-05-30T11:11:34.255Z,2.70
2019-05-30T11:13:39.731Z,2.93
2019-05-30T11:15:45.395Z,2.70
2019-05-30T11:17:52.743Z,2.73
2019-05-30T11:19:59.598Z,2.47
2019-05-30T11:22:05.760Z,2.80
2019-05-30T11:24:14.633Z,2.73
2019-05-30T11:26:25.383Z,2.83
2019-05-30T11:28:30.459Z,2.70
2019-05-30T11:30:34.815Z,3.10
2019-05-30T11:32:39.334Z,2.83
2019-05-30T11:34:44.552Z,2.93
2019-05-30T11:36:49.060Z,2.90
2019-05-30T11:38:55.353Z,2.40
2019-05-30T11:41:04.394Z,2.67
2019-05-30T11:43:13.196Z,2.53
2019-05-30T11:45:31.051Z,2.83
2019-05-30T11:47:36.815Z,2.70
2019-05-30T11:49:41.253Z,2.53
2019-05-30T11:51:45.712Z,2.50
2019-05-30T11:53:50.016Z,2.83
2019-05-30T11:55:54.439Z,3.30
2019-05-30T11:58:00.098Z,2.73
2019-05-30T12:00:08.080Z,2.80
2019-05-30T12:02:16.173Z,3.10
2019-05-30T12:04:24.416Z,2.37
2019-05-30T12:06:30.456Z,3.10
2019-05-30T12:08:38.280Z,3.10
2019-05-30T12:10:43.915Z,2.93
2019-05-30T12:12:53.226Z,2.50
2019-05-30T12:14:59.470Z,2.60
2019-05-30T12:17:06.475Z,2.63
2019-05-30T12:19:18.223Z,2.67
2019-05-30T12:21:29.938Z,2.70
2019-05-30T12:23:34.479Z,3.23
2019-05-30T12:25:39.438Z,2.87
2019-05-30T12:27:44.308Z,2.57
2019-05-30T12:29:49.329Z,2.50
2019-05-30T12:31:56.126Z,3.00
2019-05-30T12:34:00.552Z,2.83
2019-05-30T12:36:07.946Z,2.70
2019-05-30T12:38:21.571Z,2.97
2019-05-30T12:40:28.635Z,3.00
2019-05-30T12:42:33.839Z,3.00
2019-05-30T12:44:39.171Z,3.00
2019-05-30T12:46:43.900Z,2.63
2019-05-30T12:48:50.322Z,3.10
2019-05-30T12:50:59.365Z,3.30
2019-05-30T12:53:05.998Z,3.70
2019-05-30T12:55:16.381Z,2.87
2019-05-30T12:57:33.174Z,3.10
2019-05-30T12:59:41.628Z,3.27
2019-05-30T13:01:47.940Z,2.70
2019-05-30T13:03:56.873Z,3.00
2019-05-30T13:06:07.446Z,2.93
2019-05-30T13:08:21.665Z,3.20
2019-05-30T13:10:24.447Z,3.00
2019-05-30T13:12:31.228Z,3.27
2019-05-30T13:14:35.878Z,3.13
2019-05-30T13:16:40.663Z,3.10
2019-05-30T13:18:46.661Z,2.30
2019-05-30T13:20:51.493Z,2.47
2019-05-30T13:22:58.346Z,2.70
2019-05-30T13:25:05.763Z,2.20
2019-05-30T13:27:27.605Z,2.53
2019-05-30T13:29:36.978Z,3.00
2019-05-30T13:31:42.171Z,2.90
2019-05-30T13:33:49.503Z,2.30
2019-05-30T13:35:58.876Z,2.67
2019-05-30T13:38:07.278Z,3.03
2019-05-30T13:40:24.886Z,2.50
2019-05-30T13:42:25.494Z,2.60
2019-05-30T13:44:32.732Z,2.60
2019-05-30T13:46:37.823Z,2.80
2019-05-30T13:48:43.322Z,2.17
2019-05-30T13:50:50.357Z,2.93
2019-05-30T13:52:58.910Z,2.63
2019-05-30T13:55:08.898Z,3.20
2019-05-30T13:57:24.390Z,2.60
2019-05-30T13:59:30.203Z,2.77
2019-05-30T14:01:35.450Z,2.77
2019-05-30T14:03:40.048Z,3.27
2019-05-30T14:05:45.145Z,3.00
2019-05-30T14:07:49.929Z,2.80
2019-05-30T14:09:58.316Z,3.13
2019-05-30T14:12:11.945Z,2.63
2019-05-30T14:14:21.109Z,2.57
2019-05-30T14:16:28.068Z,3.00
2019-05-30T14:18:33.032Z,3.10
2019-05-30T14:20:45.990Z,3.70
2019-05-30T14:22:51.092Z,2.70
2019-05-30T14:24:57.299Z,2.80
2019-05-30T14:27:03.453Z,2.77
2019-05-30T14:29:13.204Z,2.60
2019-05-30T14:31:28.298Z,3.23
2019-05-30T14:33:38.266Z,2.60
2019-05-30T14:35:43.919Z,2.40
2019-05-30T14:37:52.599Z,2.97
2019-05-30T14:40:11.027Z,2.60
2019-05-30T14:42:24.851Z,3.00
2019-05-30T14:44:32.880Z,2.40
2019-05-30T14:46:43.389Z,2.70
2019-05-30T14:48:48.737Z,2.80
2019-05-30T14:51:01.059Z,2.77
2019-05-30T14:53:07.094Z,2.43
2019-05-30T14:55:23.566Z,2.40
2019-05-30T14:57:28.182Z,3.27
2019-05-30T14:59:33.112Z,3.60
2019-05-30T15:01:40.443Z,3.60
2019-05-30T15:03:44.768Z,3.33
2019-05-30T15:05:51.698Z,3.10
2019-05-30T15:08:00.277Z,3.20
2019-05-30T15:10:11.050Z,3.00
2019-05-30T15:12:25.363Z,3.80
2019-05-30T15:14:38.147Z,3.73
2019-05-30T15:16:43.237Z,3.40
2019-05-30T15:18:49.912Z,3.33
2019-05-30T15:20:54.899Z,4.30
2019-05-30T15:23:00.205Z,3.30
2019-05-30T15:25:23.678Z,3.20
2019-05-30T15:27:31.710Z,3.67
2019-05-30T15:29:36.155Z,3.43
2019-05-30T15:31:40.994Z,4.13
2019-05-30T15:33:45.292Z,3.90
2019-05-30T15:35:52.543Z,4.20
2019-05-30T15:37:58.270Z,3.67
2019-05-30T15:40:03.559Z,3.43
2019-05-30T15:42:12.465Z,3.50
2019-05-30T15:44:24.884Z,4.27
2019-05-30T15:46:29.839Z,4.30
2019-05-30T15:48:34.708Z,3.67
2019-05-30T15:50:39.184Z,4.00
2019-05-30T15:52:43.868Z,4.30
2019-05-30T15:54:48.771Z,3.97
2019-05-30T15:56:54.704Z,3.40
2019-05-30T15:58:59.113Z,3.43
2019-05-30T16:01:04.290Z,4.50
2019-05-30T16:03:14.708Z,3.77
2019-05-30T16:05:25.706Z,4.20
2019-05-30T16:07:32.606Z,3.87
2019-05-30T16:09:46.859Z,3.43
2019-05-30T16:11:45.942Z,4.53
2019-05-30T16:13:50.919Z,3.37
2019-05-30T16:15:55.635Z,3.70
2019-05-30T16:18:00.083Z,3.40
2019-05-30T16:20:09.343Z,3.77
2019-05-30T16:22:22.670Z,3.77
2019-05-30T16:24:29.565Z,3.63
2019-05-30T16:26:36.463Z,3.20
2019-05-30T16:28:42.635Z,3.13
2019-05-30T16:30:47.595Z,3.33
2019-05-30T16:32:52.582Z,3.17
2019-05-30T16:34:57.031Z,3.60
2019-05-30T16:37:02.742Z,3.20
2019-05-30T16:39:12.479Z,2.97
2019-05-30T16:41:22.604Z,2.90
2019-05-30T16:43:33.059Z,3.00
2019-05-30T16:45:38.150Z,2.60
2019-05-30T16:47:43.054Z,2.80
2019-05-30T16:49:50.162Z,2.60
2019-05-30T16:51:54.932Z,3.00
2019-05-30T16:53:59.470Z,2.77
2019-05-30T16:56:04.419Z,3.07
2019-05-30T16:58:13.131Z,2.90
2019-05-30T17:00:25.209Z,3.10
2019-05-30T17:02:30.163Z,2.90
2019-05-30T17:04:37.004Z,2.93
2019-05-30T17:06:41.324Z,2.77
2019-05-30T17:08:46.270Z,3.40
2019-05-30T17:10:51.345Z,2.70
2019-05-30T17:12:56.835Z,2.60
2019-05-30T17:15:03.837Z,2.67
2019-05-30T17:17:16.117Z,2.80
2019-05-30T17:19:29.814Z,3.10
2019-05-30T17:21:34.700Z,2.73
2019-05-30T17:23:41.117Z,2.87
2019-05-30T17:25:45.531Z,2.37
2019-05-30T17:27:55.086Z,2.63
2019-05-30T17:30:00.083Z,2.83
2019-05-30T17:32:11.943Z,2.60
2019-05-30T17:34:21.865Z,2.83
2019-05-30T17:36:31.435Z,3.10
2019-05-30T17:38:36.548Z,3.00
2019-05-30T17:40:45.159Z,3.07
2019-05-30T17:42:47.894Z,3.30
2019-05-30T17:44:53.605Z,3.57
2019-05-30T17:47:01.286Z,3.60
2019-05-30T17:49:07.387Z,3.60
2019-05-30T17:51:18.175Z,3.20
2019-05-30T17:53:27.874Z,3.23
2019-05-30T17:55:32.349Z,3.00
2019-05-30T17:57:37.080Z,3.47
2019-05-30T17:59:41.405Z,3.20
2019-05-30T18:01:45.795Z,2.80
2019-05-30T18:03:51.102Z,3.37
2019-05-30T18:05:55.564Z,2.80
2019-05-30T18:08:00.065Z,3.47
2019-05-30T18:10:11.871Z,3.10
2019-05-30T18:12:18.431Z,3.37
2019-05-30T18:14:29.375Z,3.60
2019-05-30T18:16:33.921Z,3.40
2019-05-30T18:18:41.407Z,3.20
2019-05-30T18:20:49.026Z,3.20
2019-05-30T18:22:54.771Z,3.30
2019-05-30T18:25:06.925Z,3.50
2019-05-30T18:27:18.085Z,3.20
2019-05-30T18:29:30.106Z,3.50
2019-05-30T18:31:34.443Z,3.03
2019-05-30T18:33:39.014Z,2.90
2019-05-30T18:35:43.516Z,3.33
2019-05-30T18:37:49.362Z,3.40
2019-05-30T18:39:56.025Z,3.30
2019-05-30T18:42:11.199Z,3.27
2019-05-30T18:44:25.106Z,3.40
2019-05-30T18:46:31.314Z,3.37
2019-05-30T18:48:40.701Z,4.00
2019-05-30T18:50:45.055Z,3.40
2019-05-30T18:52:55.738Z,3.03
2019-05-30T18:55:06.906Z,3.40
2019-05-30T18:57:17.051Z,3.60
2019-05-30T18:59:31.386Z,3.17
2019-05-30T19:01:37.974Z,3.50
2019-05-30T19:03:43.735Z,3.10
2019-05-30T19:05:48.619Z,3.30
2019-05-30T19:07:55.085Z,3.47
2019-05-30T19:09:59.086Z,3.90
2019-05-30T19:12:04.946Z,3.40
2019-05-30T19:14:14.516Z,3.40
2019-05-30T19:16:28.527Z,3.80
2019-05-30T19:18:33.616Z,3.43
2019-05-30T19:20:40.447Z,3.97
2019-05-30T19:22:45.799Z,3.23
2019-05-30T19:24:51.235Z,3.40
2019-05-30T19:26:56.338Z,3.43
2019-05-30T19:29:01.287Z,3.50
2019-05-30T19:31:05.995Z,3.50
2019-05-30T19:33:13.911Z,3.77
2019-05-30T19:35:23.153Z,3.60
2019-05-30T19:37:28.786Z,3.80
2019-05-30T19:39:35.635Z,3.37
2019-05-30T19:41:53.435Z,3.47
2019-05-30T19:43:46.348Z,3.63
2019-05-30T19:45:50.819Z,3.77
2019-05-30T19:47:56.281Z,3.57
2019-05-30T19:50:01.348Z,3.50
2019-05-30T19:52:08.889Z,3.93
2019-05-30T19:54:28.909Z,3.70
2019-05-30T19:56:37.432Z,3.50
2019-05-30T19:58:56.029Z,3.90
2019-05-30T20:01:03.448Z,3.70
2019-05-30T20:03:17.557Z,4.10
2019-05-30T20:05:28.508Z,3.43
2019-05-30T20:07:36.730Z,3.63
2019-05-30T20:10:00.960Z,3.77
2019-05-30T20:12:03.753Z,3.93
2019-05-30T20:14:16.075Z,3.23
2019-05-30T20:16:24.031Z,4.17
2019-05-30T20:18:29.580Z,3.83
2019-05-30T20:20:53.973Z,3.80
2019-05-30T20:22:45.658Z,4.37
2019-05-30T20:24:55.210Z,4.10
2019-05-30T20:27:04.672Z,4.50
2019-05-30T20:29:16.700Z,3.97
2019-05-30T20:31:26.659Z,3.27
2019-05-30T20:33:31.734Z,4.17
2019-05-30T20:35:46.951Z,4.63
2019-05-30T20:37:52.103Z,4.13
2019-05-30T20:40:02.794Z,4.03
2019-05-30T20:42:19.272Z,4.00
2019-05-30T20:44:28.514Z,4.10
2019-05-30T20:46:32.827Z,4.40
2019-05-30T20:48:40.701Z,4.30
2019-05-30T20:50:50.685Z,3.87
2019-05-30T20:52:55.928Z,4.93
2019-05-30T20:55:03.384Z,4.97
2019-05-30T20:57:14.664Z,5.40
2019-05-30T20:59:24.855Z,5.00
2019-05-30T21:01:29.895Z,5.80
2019-05-30T21:03:35.599Z,5.03
2019-05-30T21:05:43.980Z,5.33
2019-05-30T21:07:51.082Z,5.40
2019-05-30T21:09:56.535Z,5.30
2019-05-30T21:12:03.012Z,5.10
2019-05-30T21:14:27.191Z,5.50
2019-05-30T21:16:29.118Z,5.47
2019-05-30T21:18:37.479Z,5.10
2019-05-30T21:20:46.180Z,4.70
2019-05-30T21:22:53.078Z,5.40
2019-05-30T21:24:57.783Z,5.13
2019-05-30T21:27:02.690Z,5.00
2019-05-30T21:29:24.859Z,4.20
2019-05-30T21:31:25.622Z,5.20
2019-05-30T21:33:30.286Z,4.50
2019-05-30T21:35:34.989Z,4.73
2019-05-30T21:37:41.608Z,5.57
2019-05-30T21:39:50.032Z,4.73
2019-05-30T21:41:55.390Z,4.57
2019-05-30T21:44:01.371Z,4.63
2019-05-30T21:46:07.943Z,4.40
2019-05-30T21:48:20.552Z,4.00
2019-05-30T21:50:29.295Z,4.47
2019-05-30T21:52:34.020Z,4.73
2019-05-30T21:54:43.724Z,4.40
2019-05-30T21:56:50.186Z,4.30
2019-05-30T21:59:04.236Z,3.60
2019-05-30T22:01:42.524Z,4.10
2019-05-30T22:03:51.043Z,4.40
2019-05-30T22:05:58.192Z,4.20
2019-05-30T22:08:03.428Z,3.57
2019-05-30T22:10:14.848Z,3.83
2019-05-30T22:12:23.378Z,4.00
2019-05-30T22:14:35.108Z,3.40
2019-05-30T22:16:41.682Z,3.90
2019-05-30T22:18:48.425Z,4.10
2019-05-30T22:20:53.740Z,3.67
2019-05-30T22:23:00.147Z,3.97
2019-05-30T22:25:10.731Z,4.40
2019-05-30T22:27:26.837Z,118.03
2019-05-30T22:29:33.479Z,156.50
2019-05-30T22:31:42.522Z,120.30
2019-05-30T22:33:51.709Z,118.83
2019-05-30T22:35:59.919Z,164.10
2019-05-30T22:38:08.898Z,176.57
2019-05-30T22:40:27.153Z,216.87
2019-05-30T22:42:33.493Z,205.60
2019-05-30T22:44:38.055Z,105.00
2019-05-30T22:46:44.089Z,48.20
2019-05-30T22:48:49.115Z,40.20
2019-05-30T22:50:54.045Z,509.33
2019-05-30T22:52:58.842Z,463.80
2019-05-30T22:55:04.160Z,588.17
2019-05-30T22:57:14.958Z,734.87
2019-05-30T22:59:22.216Z,823.17
2019-05-30T23:01:32.563Z,985.07
2019-05-30T23:03:38.659Z,856.03
2019-05-30T23:05:45.152Z,640.60
2019-05-30T23:07:53.778Z,446.40
2019-05-30T23:09:59.654Z,269.07
2019-05-30T23:12:13.522Z,94.10
2019-05-30T23:14:28.963Z,25.80
2019-05-30T23:16:36.716Z,15.90
2019-05-30T23:18:43.355Z,10.90
2019-05-30T23:24:13.549Z,8.03
2019-05-30T23:26:20.536Z,6.77
2019-05-30T23:28:30.500Z,7.20
2019-05-30T23:30:36.524Z,5.73
2019-05-30T23:32:42.280Z,6.93
2019-05-30T23:34:48.641Z,6.23
2019-05-30T23:36:53.010Z,6.07
2019-05-30T23:38:57.324Z,5.50
2019-05-30T23:41:12.569Z,5.03
2019-05-30T23:43:24.005Z,5.00
2019-05-30T23:45:29.417Z,4.37
2019-05-30T23:47:46.519Z,5.17
2019-05-30T23:49:51.827Z,4.60
2019-05-30T23:51:58.245Z,4.63
2019-05-30T23:54:07.094Z,4.67
2019-05-30T23:56:20.063Z,4.80
2019-05-30T23:58:25.704Z,4.13
